| time (UTC) | temp C | wind direction | speed KPH | gust KPH | rain 1hr cm | rain 24hr cm | rain mn cm | humidity % | barometer mb |
| 20260906044536 | 26 | 161 | 9.7 | 17.7 | 0.00 | 0.00 | 0.00 | 76 | 1011.2 |
| 20260906043058 | 27 | 140 | 6.4 | 19.3 | 0.00 | 0.00 | 0.00 | 72 | 1011.4 |
| 20260906041546 | 27 | 96 | 1.6 | 9.7 | 0.00 | 0.00 | 0.00 | 68 | 1011.5 |
| 20260906040021 | 27 | 138 | 4.8 | 12.9 | 0.00 | 0.00 | 0.00 | 68 | 1011.7 |
| 20260906034555 | 27 | 132 | 6.4 | 16.1 | 0.00 | 0.00 | 0.00 | 69 | 1011.0 |
| 20260906033017 | 27 | 117 | 1.6 | 6.4 | 0.00 | 0.00 | 0.00 | 70 | 1010.9 |
| 20260906031556 | 28 | 165 | 3.2 | 4.8 | 0.00 | 0.00 | 0.00 | 68 | 1010.8 |
| 20260906030045 | 28 | 5 | 0.0 | 4.8 | 0.00 | 0.00 | 0.00 | 67 | 1010.8 |
| 20260906024512 | 28 | 22 | 3.2 | 8.0 | 0.00 | 0.00 | 0.00 | 66 | 1010.7 |
| 20260906023033 | 28 | 255 | 0.0 | 6.4 | 0.00 | 0.00 | 0.00 | 65 | 1010.3 |
| 20260906021507 | 28 | 136 | 0.0 | 1.6 | 0.00 | 0.00 | 0.00 | 64 | 1010.1 |
| 20260906020045 | 28 | 136 | 0.0 | 1.6 | 0.00 | 0.00 | 0.00 | 63 | 1009.6 |
| 20260906014539 | 29 | 136 | 0.0 | 3.2 | 0.00 | 0.00 | 0.00 | 61 | 1009.6 |
| 20260906013043 | 30 | 134 | 0.0 | 9.7 | 0.00 | 0.00 | 0.00 | 60 | 1009.7 |
| 20260906011525 | 30 | 175 | 6.4 | 12.9 | 0.00 | 0.00 | 0.00 | 59 | 1009.8 |
| 20260906010008 | 30 | 174 | 6.4 | 12.9 | 0.00 | 0.00 | 0.00 | 59 | 1010.2 |
| 20260906004547 | 31 | 149 | 4.8 | 16.1 | 0.00 | 0.00 | 0.00 | 59 | 1010.1 |
| 20260906003003 | 31 | 116 | 14.5 | 24.1 | 0.00 | 0.00 | 0.00 | 59 | 1010.2 |
| 20260906001558 | 32 | 175 | 6.4 | 14.5 | 0.00 | 0.00 | 0.00 | 58 | 1009.9 |
| 20260906000021 | 32 | 98 | 8.0 | 17.7 | 0.00 | 0.00 | 0.00 | 57 | 1009.7 |
| 20260905234603 | 33 | 147 | 4.8 | 11.3 | 0.00 | 0.00 | 0.00 | 55 | 1009.4 |
| 20260905234502 | 33 | 151 | 4.8 | 11.3 | 0.00 | 0.00 | 0.00 | 55 | 1009.3 |
| 20260905233021 | 35 | 76 | 0.0 | 1.6 | 0.00 | 0.00 | 0.00 | 53 | 1009.3 |
| 20260905231556 | 35 | 319 | 0.0 | 1.6 | 0.00 | 0.00 | 0.00 | 50 | 1009.1 |
| 20260905230038 | 35 | 319 | 0.0 | 3.2 | 0.00 | 0.00 | 0.00 | 46 | 1009.0 |
| 20260905224513 | 36 | 348 | 3.2 | 9.7 | 0.00 | 0.00 | 0.00 | 44 | 1009.2 |
| 20260905223040 | 36 | 286 | 4.8 | 11.3 | 0.00 | 0.00 | 0.00 | 43 | 1009.2 |
| 20260905221517 | 36 | 340 | 8.0 | 14.5 | 0.00 | 0.00 | 0.00 | 41 | 1009.1 |
| 20260905220055 | 37 | 327 | 9.7 | 16.1 | 0.00 | 0.00 | 0.00 | 41 | 1009.2 |
| 20260905214536 | 37 | 311 | 11.3 | 17.7 | 0.00 | 0.00 | 0.00 | 42 | 1009.2 |
| 20260905213059 | 37 | 324 | 8.0 | 14.5 | 0.00 | 0.00 | 0.00 | 42 | 1009.2 |
| 20260905211544 | 37 | 315 | 3.2 | 9.7 | 0.00 | 0.00 | 0.00 | 42 | 1009.3 |
| 20260905210013 | 37 | 304 | 9.7 | 17.7 | 0.00 | 0.00 | 0.00 | 43 | 1009.4 |
| 20260905204550 | 37 | 290 | 9.7 | 17.7 | 0.00 | 0.00 | 0.00 | 43 | 1009.6 |
| 20260905203024 | 37 | 289 | 3.2 | 9.7 | 0.00 | 0.00 | 0.00 | 42 | 1009.7 |
| 20260905201558 | 37 | 252 | 6.4 | 12.9 | 0.00 | 0.00 | 0.00 | 44 | 1009.9 |
| 20260905200026 | 36 | 237 | 6.4 | 11.3 | 0.00 | 0.00 | 0.00 | 42 | 1010.3 |
| 20260905194506 | 36 | 311 | 8.0 | 17.7 | 0.00 | 0.00 | 0.00 | 42 | 1010.4 |
| 20260905193033 | 36 | 309 | 3.2 | 11.3 | 0.00 | 0.00 | 0.00 | 43 | 1010.5 |
| 20260905191513 | 36 | 29 | 3.2 | 19.3 | 0.00 | 0.00 | 0.00 | 44 | 1010.8 |
| 20260905190045 | 36 | 14 | 11.3 | 16.1 | 0.00 | 0.00 | 0.00 | 43 | 1011.0 |
| 20260905184522 | 35 | 118 | 1.6 | 11.3 | 0.00 | 0.00 | 0.00 | 47 | 1011.3 |
| 20260905183048 | 35 | 360 | 6.4 | 17.7 | 0.00 | 0.00 | 0.00 | 48 | 1011.5 |
| 20260905180004 | 35 | 344 | 6.4 | 14.5 | 0.00 | 0.00 | 0.00 | 48 | 1012.1 |
| 20260905174544 | 35 | 93 | 4.8 | 11.3 | 0.00 | 0.00 | 0.00 | 50 | 1012.1 |
| 20260905173059 | 35 | 66 | 1.6 | 9.7 | 0.00 | 0.00 | 0.00 | 52 | 1012.2 |
| 20260905171538 | 35 | 95 | 4.8 | 11.3 | 0.00 | 0.00 | 0.00 | 53 | 1012.3 |
| 20260905170020 | 33 | 303 | 3.2 | 11.3 | 0.00 | 0.00 | 0.00 | 55 | 1012.5 |
| 20260905164602 | 33 | 100 | 0.0 | 12.9 | 0.00 | 0.00 | 0.00 | 56 | 1012.7 |
| 20260905163019 | 33 | 297 | 9.7 | 14.5 | 0.00 | 0.00 | 0.00 | 59 | 1012.9 |
| 20260905161549 | 32 | 312 | 3.2 | 11.3 | 0.00 | 0.00 | 0.00 | 60 | 1013.2 |
| 20260905160030 | 32 | 299 | 1.6 | 8.0 | 0.00 | 0.00 | 0.00 | 65 | 1013.3 |
| 20260905154505 | 31 | 273 | 1.6 | 11.3 | 0.00 | 0.00 | 0.00 | 67 | 1013.5 |
| 20260905153024 | 30 | 294 | 1.6 | 9.7 | 0.00 | 0.00 | 0.00 | 70 | 1013.6 |
| 20260905151600 | 29 | 343 | 3.2 | 8.0 | 0.00 | 0.00 | 0.00 | 72 | 1013.7 |
| 20260905151502 | 29 | 328 | 4.8 | 8.0 | 0.00 | 0.00 | 0.00 | 73 | 1013.6 |
| 20260905150040 | 28 | 292 | 0.0 | 8.0 | 0.00 | 0.00 | 0.00 | 76 | 1013.6 |
| 20260905144522 | 28 | 197 | 1.6 | 8.0 | 0.00 | 0.00 | 0.00 | 77 | 1013.7 |
| 20260905143038 | 27 | 341 | 0.0 | 3.2 | 0.00 | 0.00 | 0.00 | 81 | 1013.8 |
| 20260905141514 | 27 | 88 | 0.0 | 3.2 | 0.00 | 0.00 | 0.00 | 84 | 1013.9 |
| 20260905140105 | 26 | 111 | 1.6 | 4.8 | 0.00 | 0.00 | 0.00 | 85 | 1013.7 |
| 20260905134534 | 26 | 78 | 1.6 | 3.2 | 0.00 | 0.00 | 0.00 | 86 | 1013.8 |
| 20260905133047 | 26 | 78 | 0.0 | 0.0 | 0.00 | 0.00 | 0.00 | 86 | 1013.9 |
| 20260905131530 | 25 | 78 | 0.0 | 0.0 | 0.00 | 0.00 | 0.00 | 87 | 1014.0 |
| 20260905130007 | 25 | 78 | 0.0 | 0.0 | 0.00 | 0.00 | 0.00 | 88 | 1013.9 |
| 20260905124544 | 24 | 78 | 0.0 | 0.0 | 0.00 | 0.00 | 0.00 | 89 | 1014.0 |
| 20260905123007 | 23 | 78 | 0.0 | 0.0 | 0.00 | 0.00 | 0.00 | 90 | 1013.9 |
| 20260905121545 | 23 | 78 | 0.0 | 0.0 | 0.00 | 0.00 | 0.00 | 90 | 1013.8 |
| 20260905120025 | 23 | 78 | 0.0 | 0.0 | 0.00 | 0.00 | 0.00 | 90 | 1013.8 |
| 20260905114559 | 23 | 78 | 0.0 | 0.0 | 0.00 | 0.00 | 0.00 | 90 | 1013.4 |
| 20260905114501 | 23 | 78 | 0.0 | 0.0 | 0.00 | 0.00 | 0.00 | 90 | 1013.4 |
| 20260905113023 | 22 | 78 | 0.0 | 0.0 | 0.00 | 0.00 | 0.00 | 89 | 1013.2 |
| 20260905111604 | 23 | 78 | 0.0 | 0.0 | 0.00 | 0.00 | 0.00 | 89 | 1013.0 |
| 20260905110044 | 23 | 78 | 0.0 | 0.0 | 0.00 | 0.00 | 0.00 | 89 | 1012.8 |
| 20260905104513 | 23 | 78 | 0.0 | 0.0 | 0.00 | 0.00 | 0.00 | 89 | 1012.6 |
| 20260905103034 | 23 | 78 | 0.0 | 0.0 | 0.00 | 0.00 | 0.00 | 89 | 1012.5 |
| 20260905101518 | 23 | 78 | 0.0 | 0.0 | 0.00 | 0.00 | 0.00 | 88 | 1012.4 |
| 20260905100052 | 23 | 78 | 0.0 | 0.0 | 0.00 | 0.00 | 0.00 | 88 | 1012.3 |
| 20260905094534 | 23 | 78 | 0.0 | 0.0 | 0.00 | 0.00 | 0.00 | 88 | 1012.2 |
| 20260905093053 | 23 | 78 | 0.0 | 0.0 | 0.00 | 0.00 | 0.00 | 88 | 1012.1 |
| 20260905091536 | 23 | 78 | 0.0 | 0.0 | 0.00 | 0.00 | 0.00 | 87 | 1012.2 |
| 20260905090009 | 23 | 78 | 0.0 | 0.0 | 0.00 | 0.00 | 0.00 | 87 | 1012.2 |
| 20260905084549 | 23 | 78 | 0.0 | 0.0 | 0.00 | 0.00 | 0.00 | 86 | 1012.3 |
| 20260905083010 | 23 | 78 | 0.0 | 0.0 | 0.00 | 0.00 | 0.00 | 86 | 1012.2 |
| 20260905081545 | 24 | 78 | 0.0 | 0.0 | 0.00 | 0.00 | 0.00 | 85 | 1012.1 |
| 20260905080025 | 24 | 78 | 0.0 | 0.0 | 0.00 | 0.00 | 0.00 | 86 | 1012.2 |
| 20260905074503 | 24 | 78 | 0.0 | 0.0 | 0.00 | 0.00 | 0.00 | 85 | 1012.4 |
| 20260905073023 | 24 | 78 | 0.0 | 0.0 | 0.00 | 0.00 | 0.00 | 86 | 1012.4 |
| 20260905071609 | 24 | 78 | 0.0 | 0.0 | 0.00 | 0.00 | 0.00 | 84 | 1012.5 |
| 20260905071502 | 24 | 78 | 0.0 | 0.0 | 0.00 | 0.00 | 0.00 | 84 | 1012.5 |
| 20260905070046 | 24 | 78 | 0.0 | 0.0 | 0.00 | 0.00 | 0.00 | 84 | 1012.4 |
| 20260905064523 | 24 | 78 | 0.0 | 0.0 | 0.00 | 0.00 | 0.00 | 84 | 1012.6 |
| 20260905063038 | 25 | 78 | 0.0 | 0.0 | 0.00 | 0.00 | 0.00 | 83 | 1012.5 |
| 20260905061529 | 25 | 78 | 0.0 | 0.0 | 0.00 | 0.00 | 0.00 | 82 | 1012.5 |
| 20260905060053 | 25 | 78 | 0.0 | 3.2 | 0.00 | 0.00 | 0.00 | 82 | 1012.5 |
| 20260905054541 | 25 | 177 | 0.0 | 0.0 | 0.00 | 0.00 | 0.00 | 81 | 1012.5 |
| 20260905053100 | 25 | 177 | 0.0 | 0.0 | 0.00 | 0.00 | 0.00 | 81 | 1012.4 |
| 20260905053002 | 25 | 177 | 0.0 | 0.0 | 0.00 | 0.00 | 0.00 | 81 | 1012.4 |
| 20260905051537 | 25 | 177 | 0.0 | 0.0 | 0.00 | 0.00 | 0.00 | 81 | 1012.4 |
| 20260905050018 | 26 | 177 | 0.0 | 0.0 | 0.00 | 0.00 | 0.00 | 80 | 1012.7 |